Time;durP1;ratioP1;P1;durP2;ratioP2;P2;SDS_P1;SDS_P2;PMS_P1;PMS_P2;Temp;Humidity;BMP_temperature;BMP_pressure;BME280_temperature;BME280_humidity;BME280_pressure;Samples;Min_cycle;Max_cycle;Signal;HPM_P1;HPM_P2
2021/12/16 00:03:33;;;;;;;22.27;9.60;;;;;;;;;;5075301;28;20115;-76
2021/12/16 00:08:40;;;;;;;22.42;10.05;;;;;;;;;;5051668;28;20028;-76
2021/12/16 00:35:07;;;;;;;28.50;12.40;;;;;;;;;;5074533;28;20362;-76
2021/12/16 00:37:33;;;;;;;29.83;12.13;;;;;;;;;;5074221;28;20021;-75
2021/12/16 00:40:00;;;;;;;22.25;10.30;;;;;;;;;;5073980;28;20052;-75
2021/12/16 00:42:37;;;;;;;21.17;9.45;;;;;;;;;;5074194;28;20074;-76
2021/12/16 00:45:27;;;;;;;20.70;9.35;;;;;;;;;;5059102;28;20033;-77
2021/12/16 00:48:00;;;;;;;22.77;8.95;;;;;;;;;;5075540;28;20032;-76
2021/12/16 00:55:52;;;;;;;18.92;9.93;;;;;;;;;;5074247;28;20043;-72
2021/12/16 00:58:22;;;;;;;18.48;9.60;;;;;;;;;;5056060;28;20024;-73
2021/12/16 01:00:59;;;;;;;20.27;9.98;;;;;;;;;;5055897;28;20115;-74
2021/12/16 01:03:34;;;;;;;20.95;10.65;;;;;;;;;;5056019;28;20564;-73
2021/12/16 01:06:23;;;;;;;19.73;10.15;;;;;;;;;;5074435;28;20029;-76
2021/12/16 01:37:20;;;;;;;23.90;11.60;;;;;;;;;;5050285;28;20055;-73
2021/12/16 01:48:12;;;;;;;22.00;10.65;;;;;;;;;;5073683;28;20043;-73
2021/12/16 01:50:43;;;;;;;21.40;11.38;;;;;;;;;;5073181;28;20119;-73
2021/12/16 01:55:47;;;;;;;22.35;11.43;;;;;;;;;;5073795;28;20082;-74
2021/12/16 01:58:21;;;;;;;23.58;10.88;;;;;;;;;;5059410;28;20074;-76
2021/12/16 02:01:01;;;;;;;24.08;12.20;;;;;;;;;;5059355;28;20032;-72
2021/12/16 02:03:39;;;;;;;23.48;11.93;;;;;;;;;;5059243;28;20035;-75
2021/12/16 02:06:21;;;;;;;21.08;11.05;;;;;;;;;;5059293;28;20051;-77
2021/12/16 02:08:49;;;;;;;22.52;11.80;;;;;;;;;;5077739;28;20454;-73
2021/12/16 02:11:26;;;;;;;24.48;11.60;;;;;;;;;;5077058;28;20463;-74
2021/12/16 02:37:54;;;;;;;23.20;11.50;;;;;;;;;;5076651;28;20119;-76
2021/12/16 02:40:21;;;;;;;22.83;11.90;;;;;;;;;;5076236;28;20121;-76
2021/12/16 02:43:04;;;;;;;21.88;11.48;;;;;;;;;;5076503;28;20481;-74
2021/12/16 02:48:35;;;;;;;22.27;10.90;;;;;;;;;;5076683;28;20538;-73
2021/12/16 02:51:06;;;;;;;19.75;10.80;;;;;;;;;;5058476;28;20035;-74
2021/12/16 02:53:33;;;;;;;21.48;11.23;;;;;;;;;;5058423;28;20020;-76
2021/12/16 02:56:00;;;;;;;21.80;11.07;;;;;;;;;;5076307;28;20151;-72
2021/12/16 02:58:26;;;;;;;22.02;10.93;;;;;;;;;;5076643;28;20021;-76
2021/12/16 03:01:00;;;;;;;22.63;11.88;;;;;;;;;;5079620;28;20036;-77
2021/12/16 03:03:28;;;;;;;24.85;11.23;;;;;;;;;;5059835;28;20047;-73
2021/12/16 03:05:55;;;;;;;18.38;10.75;;;;;;;;;;5041807;28;20024;-75
2021/12/16 03:08:21;;;;;;;20.70;11.02;;;;;;;;;;5075599;28;20094;-77
2021/12/16 03:13:29;;;;;;;20.33;11.43;;;;;;;;;;5076848;28;20369;-73
2021/12/16 03:16:08;;;;;;;20.10;10.55;;;;;;;;;;5075962;28;20365;-76
2021/12/16 03:18:51;;;;;;;22.77;11.32;;;;;;;;;;5058236;28;20381;-76
2021/12/16 03:21:33;;;;;;;20.38;10.57;;;;;;;;;;5057883;28;20488;-74
2021/12/16 03:27:06;;;;;;;21.67;11.05;;;;;;;;;;5075756;28;20032;-74
2021/12/16 03:29:53;;;;;;;24.33;11.48;;;;;;;;;;5075425;28;20529;-76
2021/12/16 03:37:14;;;;;;;19.67;11.02;;;;;;;;;;5075527;28;20029;-77
2021/12/16 03:39:50;;;;;;;20.77;11.35;;;;;;;;;;5029783;28;20053;-76
2021/12/16 03:42:36;;;;;;;18.08;10.70;;;;;;;;;;5034191;28;20389;-73
2021/12/16 03:46:25;;;;;;;25.25;12.15;;;;;;;;;;5017575;28;20399;-73
2021/12/16 03:47:57;;;;;;;20.70;11.30;;;;;;;;;;5035359;28;20053;-75
2021/12/16 03:50:24;;;;;;;21.83;11.20;;;;;;;;;;5035891;28;20382;-76
2021/12/16 03:52:50;;;;;;;26.33;12.00;;;;;;;;;;5035298;28;20525;-74
2021/12/16 03:55:19;;;;;;;24.40;11.55;;;;;;;;;;5035294;28;20025;-77
2021/12/16 03:57:46;;;;;;;20.38;10.77;;;;;;;;;;5035191;28;20025;-77
2021/12/16 04:00:16;;;;;;;20.05;10.68;;;;;;;;;;5035115;28;20041;-77
2021/12/16 04:02:42;;;;;;;20.45;10.65;;;;;;;;;;5033782;28;20036;-77
2021/12/16 04:05:10;;;;;;;19.40;10.60;;;;;;;;;;5035048;28;20022;-73
2021/12/16 04:07:37;;;;;;;21.52;11.35;;;;;;;;;;5033697;28;20026;-73
2021/12/16 04:10:06;;;;;;;19.98;10.65;;;;;;;;;;5034986;28;20025;-76
2021/12/16 04:12:33;;;;;;;19.48;10.25;;;;;;;;;;5035425;28;20032;-76
2021/12/16 04:15:00;;;;;;;21.23;11.48;;;;;;;;;;5034818;28;20091;-73
2021/12/16 04:17:28;;;;;;;21.65;10.70;;;;;;;;;;5033530;28;20023;-76
2021/12/16 04:19:55;;;;;;;20.63;10.63;;;;;;;;;;5032423;28;20029;-75
2021/12/16 04:22:30;;;;;;;26.20;11.30;;;;;;;;;;5035230;28;20537;-72
2021/12/16 04:24:58;;;;;;;23.70;10.70;;;;;;;;;;5033402;28;20022;-77
2021/12/16 04:27:25;;;;;;;20.30;10.25;;;;;;;;;;5033354;28;20034;-76
2021/12/16 04:29:51;;;;;;;19.73;9.60;;;;;;;;;;5033321;28;20091;-74
2021/12/16 04:32:18;;;;;;;22.85;10.48;;;;;;;;;;5034499;28;20108;-77
2021/12/16 04:34:44;;;;;;;22.38;11.57;;;;;;;;;;5034501;28;20064;-76
2021/12/16 04:37:11;;;;;;;22.35;10.75;;;;;;;;;;5034379;28;20050;-76
2021/12/16 04:39:39;;;;;;;20.65;10.30;;;;;;;;;;5048962;28;20044;-75
2021/12/16 04:42:06;;;;;;;21.75;10.63;;;;;;;;;;5056203;28;20035;-76
2021/12/16 04:44:32;;;;;;;21.05;10.73;;;;;;;;;;5074012;28;20470;-73
2021/12/16 04:47:00;;;;;;;19.60;10.18;;;;;;;;;;5056278;28;20427;-77
2021/12/16 04:49:26;;;;;;;20.67;10.45;;;;;;;;;;5056072;28;20043;-77
2021/12/16 04:51:54;;;;;;;21.08;10.80;;;;;;;;;;5073979;28;20033;-76
2021/12/16 04:54:23;;;;;;;19.73;10.57;;;;;;;;;;5073933;28;20024;-74
2021/12/16 04:56:50;;;;;;;19.83;10.75;;;;;;;;;;5074121;28;20036;-76
2021/12/16 04:59:18;;;;;;;20.02;10.38;;;;;;;;;;5073811;28;20025;-76
2021/12/16 05:01:52;;;;;;;18.55;10.35;;;;;;;;;;5073719;28;20111;-76
2021/12/16 05:04:18;;;;;;;20.95;9.88;;;;;;;;;;5055967;28;20163;-76
2021/12/16 05:06:44;;;;;;;18.83;10.10;;;;;;;;;;5055788;28;20029;-77
2021/12/16 05:09:20;;;;;;;20.80;10.05;;;;;;;;;;5073732;28;20021;-77
2021/12/16 05:11:46;;;;;;;18.55;10.90;;;;;;;;;;5055756;28;20051;-78
2021/12/16 05:14:18;;;;;;;19.67;10.68;;;;;;;;;;5075291;28;20029;-74
2021/12/16 05:16:45;;;;;;;19.55;10.57;;;;;;;;;;5057120;28;20387;-76
2021/12/16 05:19:11;;;;;;;18.10;9.90;;;;;;;;;;5073599;28;20024;-73
2021/12/16 05:24:25;;;;;;;20.92;11.57;;;;;;;;;;5073607;28;20030;-76
2021/12/16 05:26:53;;;;;;;19.35;11.93;;;;;;;;;;5074021;28;20024;-73
2021/12/16 05:29:20;;;;;;;23.50;10.32;;;;;;;;;;5055542;28;20020;-76
2021/12/16 05:31:46;;;;;;;19.80;9.60;;;;;;;;;;5073637;28;20424;-76
2021/12/16 05:34:13;;;;;;;19.63;10.07;;;;;;;;;;5073398;28;20020;-73
2021/12/16 05:36:40;;;;;;;19.83;10.07;;;;;;;;;;5073964;28;20054;-73
2021/12/16 05:39:06;;;;;;;18.73;9.40;;;;;;;;;;5055157;28;20072;-73
2021/12/16 05:41:34;;;;;;;20.88;10.52;;;;;;;;;;5073551;28;20385;-74
2021/12/16 05:44:00;;;;;;;19.33;10.30;;;;;;;;;;5055362;28;20028;-74
2021/12/16 05:46:27;;;;;;;18.88;10.65;;;;;;;;;;5073296;28;20483;-73
2021/12/16 05:48:54;;;;;;;18.08;10.23;;;;;;;;;;5073835;28;20026;-73
2021/12/16 05:51:31;;;;;;;19.13;10.40;;;;;;;;;;5073805;28;20046;-74
2021/12/16 05:53:58;;;;;;;19.55;10.27;;;;;;;;;;5055300;28;20021;-72
2021/12/16 05:56:25;;;;;;;20.38;10.45;;;;;;;;;;5052069;28;20386;-72
2021/12/16 05:58:51;;;;;;;21.42;10.32;;;;;;;;;;5083742;28;20444;-74
2021/12/16 06:01:19;;;;;;;20.55;10.02;;;;;;;;;;5038778;28;20032;-73
2021/12/16 06:03:46;;;;;;;21.00;10.02;;;;;;;;;;5072979;28;20029;-73
2021/12/16 06:06:12;;;;;;;19.25;10.73;;;;;;;;;;5072630;28;20150;-72
2021/12/16 06:08:39;;;;;;;19.83;10.82;;;;;;;;;;5054907;28;20485;-74
2021/12/16 06:13:39;;;;;;;19.38;9.95;;;;;;;;;;5072976;28;20021;-72
2021/12/16 06:27:13;;;;;;;17.10;9.60;;;;;;;;;;5052742;28;20044;-73
2021/12/16 06:29:41;;;;;;;20.27;9.35;;;;;;;;;;5052962;28;20032;-74
2021/12/16 06:32:07;;;;;;;27.05;10.02;;;;;;;;;;5034669;28;20033;-72
2021/12/16 06:34:34;;;;;;;19.92;10.13;;;;;;;;;;5034769;28;20064;-72
2021/12/16 06:37:00;;;;;;;19.77;9.68;;;;;;;;;;5052377;28;20036;-73
2021/12/16 06:39:26;;;;;;;15.48;9.40;;;;;;;;;;5052229;28;20041;-71
2021/12/16 06:41:52;;;;;;;19.08;9.52;;;;;;;;;;5052832;28;20439;-71
2021/12/16 06:44:23;;;;;;;18.55;10.10;;;;;;;;;;5037799;28;20488;-72
2021/12/16 06:46:53;;;;;;;23.88;10.55;;;;;;;;;;5038440;28;20167;-72
2021/12/16 06:49:21;;;;;;;21.38;10.07;;;;;;;;;;5038390;28;20055;-70
2021/12/16 06:51:55;;;;;;;17.98;9.70;;;;;;;;;;5056306;28;20021;-71
2021/12/16 06:54:28;;;;;;;19.80;10.68;;;;;;;;;;5049113;28;20039;-72
2021/12/16 06:59:29;;;;;;;18.30;10.35;;;;;;;;;;5056213;28;20241;-73
2021/12/16 07:04:31;;;;;;;19.30;10.02;;;;;;;;;;5056764;28;20466;-73
2021/12/16 07:06:58;;;;;;;18.42;10.43;;;;;;;;;;5055924;28;20496;-73
2021/12/16 07:09:25;;;;;;;21.15;11.10;;;;;;;;;;5055930;28;20027;-72
2021/12/16 07:11:56;;;;;;;19.17;11.13;;;;;;;;;;5055889;28;20020;-71
2021/12/16 07:14:34;;;;;;;23.02;13.13;;;;;;;;;;5055873;28;20389;-72
2021/12/16 07:17:01;;;;;;;19.25;10.77;;;;;;;;;;5054582;28;20112;-72
2021/12/16 07:19:27;;;;;;;20.67;10.40;;;;;;;;;;5055708;28;20051;-73
2021/12/16 07:21:53;;;;;;;23.13;11.93;;;;;;;;;;5055574;28;20029;-71
2021/12/16 07:24:20;;;;;;;23.35;11.80;;;;;;;;;;5055672;28;20029;-72
2021/12/16 07:26:48;;;;;;;24.00;10.75;;;;;;;;;;5055608;28;20104;-73
2021/12/16 07:29:14;;;;;;;20.58;10.88;;;;;;;;;;5055567;28;20023;-72
2021/12/16 07:31:40;;;;;;;18.48;9.07;;;;;;;;;;5055504;28;20036;-72
2021/12/16 07:34:07;;;;;;;21.05;10.55;;;;;;;;;;5055390;28;20366;-72
2021/12/16 07:36:34;;;;;;;21.90;11.20;;;;;;;;;;5055799;28;20021;-71
2021/12/16 07:39:02;;;;;;;17.35;9.60;;;;;;;;;;5055013;28;20033;-71
2021/12/16 07:41:32;;;;;;;19.75;10.13;;;;;;;;;;5055774;28;20040;-72
2021/12/16 07:44:10;;;;;;;19.95;9.93;;;;;;;;;;5071036;28;20029;-73
2021/12/16 07:46:38;;;;;;;18.23;9.65;;;;;;;;;;5071622;28;20059;-72
2021/12/16 07:49:06;;;;;;;20.13;10.07;;;;;;;;;;5055178;28;20021;-73
2021/12/16 07:51:32;;;;;;;17.98;9.02;;;;;;;;;;5055128;28;20155;-73
2021/12/16 07:53:58;;;;;;;15.60;8.23;;;;;;;;;;5081273;28;20108;-72
2021/12/16 07:56:24;;;;;;;20.73;9.95;;;;;;;;;;5075074;28;20025;-70
2021/12/16 07:58:50;;;;;;;20.98;10.18;;;;;;;;;;5075451;28;20440;-73
2021/12/16 08:01:17;;;;;;;18.80;9.73;;;;;;;;;;5074844;28;20123;-72
2021/12/16 08:03:43;;;;;;;17.15;8.98;;;;;;;;;;5056924;28;20044;-73
2021/12/16 08:06:12;;;;;;;20.25;9.10;;;;;;;;;;5074440;28;20027;-73
2021/12/16 08:08:38;;;;;;;17.35;8.45;;;;;;;;;;5056327;28;20026;-71
2021/12/16 08:11:06;;;;;;;17.02;8.32;;;;;;;;;;5056806;28;20016;-72
2021/12/16 08:13:32;;;;;;;17.15;9.05;;;;;;;;;;5056683;28;20082;-72
2021/12/16 08:15:59;;;;;;;16.48;8.63;;;;;;;;;;5056572;28;20078;-72
2021/12/16 08:18:29;;;;;;;17.48;8.30;;;;;;;;;;5056651;28;20033;-74
2021/12/16 08:20:55;;;;;;;18.95;8.57;;;;;;;;;;5056520;28;20568;-72
2021/12/16 08:23:22;;;;;;;16.92;8.52;;;;;;;;;;5074656;28;20107;-72
2021/12/16 08:25:48;;;;;;;16.20;8.55;;;;;;;;;;5074483;28;20029;-75
2021/12/16 08:28:15;;;;;;;14.15;8.57;;;;;;;;;;5074312;28;20082;-74
2021/12/16 08:30:42;;;;;;;14.50;7.65;;;;;;;;;;5056433;28;20067;-74
2021/12/16 08:33:11;;;;;;;14.82;7.82;;;;;;;;;;5056240;28;20020;-74
2021/12/16 08:35:40;;;;;;;14.38;7.03;;;;;;;;;;5056318;28;20032;-75
2021/12/16 08:38:07;;;;;;;14.88;7.68;;;;;;;;;;5056020;28;20480;-74
2021/12/16 08:40:33;;;;;;;14.18;6.75;;;;;;;;;;5037769;28;20053;-73
2021/12/16 08:43:00;;;;;;;9.73;4.47;;;;;;;;;;5032956;28;20022;-73
2021/12/16 08:45:27;;;;;;;8.75;3.92;;;;;;;;;;5033007;28;20048;-73
2021/12/16 08:47:55;;;;;;;7.25;3.42;;;;;;;;;;5032835;28;20556;-74
2021/12/16 08:50:23;;;;;;;8.25;3.22;;;;;;;;;;5032818;28;20060;-70
2021/12/16 08:52:49;;;;;;;5.95;2.65;;;;;;;;;;5016341;28;20026;-72
2021/12/16 08:55:16;;;;;;;5.97;3.25;;;;;;;;;;5033995;28;20022;-72
2021/12/16 08:57:42;;;;;;;6.95;2.72;;;;;;;;;;5034144;28;20423;-71
2021/12/16 09:00:10;;;;;;;5.10;2.97;;;;;;;;;;5032423;28;20441;-71
2021/12/16 09:02:36;;;;;;;5.65;2.75;;;;;;;;;;5033775;28;20079;-71
2021/12/16 09:05:04;;;;;;;5.72;2.78;;;;;;;;;;5032464;28;20022;-72
2021/12/16 09:07:30;;;;;;;5.13;2.88;;;;;;;;;;5032228;28;20093;-72
2021/12/16 09:09:57;;;;;;;4.15;2.70;;;;;;;;;;5033607;28;20390;-71
2021/12/16 09:14:56;;;;;;;5.68;3.20;;;;;;;;;;5034029;28;20034;-72
2021/12/16 09:17:23;;;;;;;6.07;2.63;;;;;;;;;;5033655;28;20470;-74
2021/12/16 09:19:50;;;;;;;5.95;2.95;;;;;;;;;;5032292;28;20116;-73
2021/12/16 09:22:17;;;;;;;4.97;2.78;;;;;;;;;;5032203;28;20025;-73
2021/12/16 09:24:44;;;;;;;6.63;3.50;;;;;;;;;;5032191;28;20027;-71
2021/12/16 09:27:10;;;;;;;4.55;2.60;;;;;;;;;;5032217;28;20033;-73
2021/12/16 09:29:37;;;;;;;6.10;2.80;;;;;;;;;;5032139;28;20026;-73
2021/12/16 09:32:04;;;;;;;5.00;3.00;;;;;;;;;;5032002;28;20418;-72
2021/12/16 09:34:31;;;;;;;5.80;2.85;;;;;;;;;;5031979;28;20026;-73
2021/12/16 09:36:58;;;;;;;4.55;3.00;;;;;;;;;;5032436;28;20033;-73
2021/12/16 09:39:26;;;;;;;4.32;2.63;;;;;;;;;;5031766;28;20046;-72
2021/12/16 09:41:55;;;;;;;4.78;2.85;;;;;;;;;;5031994;28;20037;-72
2021/12/16 09:44:22;;;;;;;6.60;2.60;;;;;;;;;;5031999;28;20017;-73
2021/12/16 09:46:51;;;;;;;4.63;2.63;;;;;;;;;;5032302;28;20040;-72
2021/12/16 09:49:18;;;;;;;4.43;2.80;;;;;;;;;;5031989;28;20075;-72
2021/12/16 09:51:46;;;;;;;5.50;2.67;;;;;;;;;;5031898;28;20025;-74
2021/12/16 09:54:14;;;;;;;6.00;3.15;;;;;;;;;;5031637;28;20478;-75
2021/12/16 09:56:41;;;;;;;4.28;2.70;;;;;;;;;;5033163;28;20382;-74
2021/12/16 09:59:10;;;;;;;3.80;2.22;;;;;;;;;;5033096;28;20026;-73
2021/12/16 10:01:37;;;;;;;4.18;2.47;;;;;;;;;;5032860;28;20032;-73
2021/12/16 10:04:05;;;;;;;3.70;2.38;;;;;;;;;;5031616;28;20049;-73
2021/12/16 10:06:33;;;;;;;4.70;1.70;;;;;;;;;;5033368;28;20521;-74
2021/12/16 10:09:01;;;;;;;3.38;1.85;;;;;;;;;;5031719;28;20036;-74
2021/12/16 10:11:27;;;;;;;3.42;1.95;;;;;;;;;;5031514;28;20018;-72
2021/12/16 10:19:08;;;;;;;5.40;1.98;;;;;;;;;;5036395;28;20099;-73
2021/12/16 10:21:35;;;;;;;2.65;1.90;;;;;;;;;;5036160;28;20371;-72
2021/12/16 10:24:01;;;;;;;4.65;1.90;;;;;;;;;;5035898;28;20029;-72
2021/12/16 10:26:28;;;;;;;3.10;1.77;;;;;;;;;;5035141;28;20068;-72
2021/12/16 10:28:56;;;;;;;5.53;2.10;;;;;;;;;;5034873;28;20025;-72
2021/12/16 10:31:25;;;;;;;3.03;1.80;;;;;;;;;;5035584;28;20400;-71
2021/12/16 10:33:54;;;;;;;3.22;1.95;;;;;;;;;;5036599;28;20021;-73
2021/12/16 10:36:23;;;;;;;4.72;2.15;;;;;;;;;;5035311;28;20117;-72
2021/12/16 10:38:56;;;;;;;3.30;2.20;;;;;;;;;;5037709;28;20032;-71
2021/12/16 10:41:27;;;;;;;4.25;1.90;;;;;;;;;;5058532;28;20082;-71
2021/12/16 10:44:17;;;;;;;3.17;2.08;;;;;;;;;;5058281;28;20082;-74
2021/12/16 10:46:43;;;;;;;3.72;1.92;;;;;;;;;;5068835;28;20032;-73
2021/12/16 10:49:14;;;;;;;3.90;1.92;;;;;;;;;;5058281;28;20079;-72
2021/12/16 10:51:42;;;;;;;3.70;1.88;;;;;;;;;;5076365;28;20037;-74
2021/12/16 10:54:13;;;;;;;4.38;2.47;;;;;;;;;;5075983;28;20473;-74
2021/12/16 10:56:41;;;;;;;4.05;2.42;;;;;;;;;;5058154;28;20500;-73
2021/12/16 10:59:14;;;;;;;4.18;2.78;;;;;;;;;;5058120;28;20024;-74
2021/12/16 11:01:40;;;;;;;5.00;2.50;;;;;;;;;;5058137;28;20126;-72
2021/12/16 11:04:12;;;;;;;5.82;3.10;;;;;;;;;;5057955;28;20017;-73
2021/12/16 11:06:40;;;;;;;4.90;2.92;;;;;;;;;;5058088;28;20025;-73
2021/12/16 11:09:25;;;;;;;6.22;3.10;;;;;;;;;;5057956;28;20422;-73
2021/12/16 11:12:10;;;;;;;5.10;2.95;;;;;;;;;;5058238;28;20207;-75
2021/12/16 11:14:37;;;;;;;4.95;2.92;;;;;;;;;;5057804;28;20078;-73
2021/12/16 11:17:04;;;;;;;4.93;2.67;;;;;;;;;;5057811;28;20021;-72
2021/12/16 11:19:41;;;;;;;4.25;2.90;;;;;;;;;;5075684;28;20024;-74
2021/12/16 11:22:08;;;;;;;5.65;3.30;;;;;;;;;;5057579;28;20036;-72
2021/12/16 11:24:34;;;;;;;5.32;3.40;;;;;;;;;;5075596;28;20104;-71
2021/12/16 11:27:18;;;;;;;5.30;3.13;;;;;;;;;;5075862;28;20031;-72
2021/12/16 11:29:44;;;;;;;6.13;3.45;;;;;;;;;;5074964;28;20491;-72
2021/12/16 11:32:30;;;;;;;6.35;3.28;;;;;;;;;;5057725;28;20511;-74
2021/12/16 11:34:56;;;;;;;5.75;3.05;;;;;;;;;;5057465;28;20050;-74
2021/12/16 11:37:23;;;;;;;4.85;3.13;;;;;;;;;;5075370;28;20103;-73
2021/12/16 11:39:49;;;;;;;4.47;2.95;;;;;;;;;;5074780;28;20041;-74
2021/12/16 11:42:16;;;;;;;5.60;3.10;;;;;;;;;;5075001;28;20024;-74
2021/12/16 11:44:43;;;;;;;5.25;3.25;;;;;;;;;;5075404;28;20384;-74
2021/12/16 11:47:23;;;;;;;7.10;4.00;;;;;;;;;;5075303;28;20024;-74
2021/12/16 11:50:01;;;;;;;5.13;3.03;;;;;;;;;;5075578;28;20078;-74
2021/12/16 11:52:29;;;;;;;7.55;3.80;;;;;;;;;;5075837;28;20052;-74
2021/12/16 11:54:56;;;;;;;6.50;3.85;;;;;;;;;;5075114;28;20055;-74
2021/12/16 11:57:25;;;;;;;8.90;4.38;;;;;;;;;;5056634;28;20025;-73
2021/12/16 12:00:01;;;;;;;15.32;6.15;;;;;;;;;;5075074;28;20032;-73
2021/12/16 12:02:31;;;;;;;7.90;4.43;;;;;;;;;;5074968;28;20099;-73
2021/12/16 12:05:16;;;;;;;7.97;4.80;;;;;;;;;;5073669;28;20523;-73
2021/12/16 12:07:43;;;;;;;8.60;5.05;;;;;;;;;;5089608;28;20545;-73
2021/12/16 12:10:10;;;;;;;8.95;4.40;;;;;;;;;;5055444;28;20052;-74
2021/12/16 12:12:41;;;;;;;9.50;4.40;;;;;;;;;;5069580;28;20078;-73
2021/12/16 12:15:08;;;;;;;7.28;4.45;;;;;;;;;;5069488;28;20029;-73
2021/12/16 12:17:43;;;;;;;7.68;4.43;;;;;;;;;;5074635;28;20469;-73
2021/12/16 12:20:09;;;;;;;6.68;4.07;;;;;;;;;;5057527;28;20024;-73
2021/12/16 12:22:35;;;;;;;9.43;4.93;;;;;;;;;;5074757;28;20025;-74
2021/12/16 12:25:02;;;;;;;10.25;5.10;;;;;;;;;;5056590;28;20388;-75
2021/12/16 12:27:28;;;;;;;7.70;4.63;;;;;;;;;;5075091;28;20082;-73
2021/12/16 12:30:03;;;;;;;8.10;4.85;;;;;;;;;;5056422;28;20028;-71
2021/12/16 12:32:34;;;;;;;9.25;4.70;;;;;;;;;;5055523;28;20025;-72
2021/12/16 12:35:07;;;;;;;8.45;4.68;;;;;;;;;;5074516;28;20380;-74
2021/12/16 12:37:34;;;;;;;7.82;4.68;;;;;;;;;;5056018;28;20028;-73
2021/12/16 12:40:19;;;;;;;10.10;4.97;;;;;;;;;;5072821;28;20105;-72
2021/12/16 12:42:46;;;;;;;12.65;5.30;;;;;;;;;;5055819;28;20119;-73
2021/12/16 12:45:14;;;;;;;8.98;5.13;;;;;;;;;;5073902;28;20097;-73
2021/12/16 12:47:42;;;;;;;8.85;5.10;;;;;;;;;;5074033;28;20021;-73
2021/12/16 12:50:19;;;;;;;8.98;4.53;;;;;;;;;;5055982;28;20119;-72
2021/12/16 12:52:48;;;;;;;11.10;6.10;;;;;;;;;;5073943;28;20489;-73
2021/12/16 12:55:28;;;;;;;10.80;5.72;;;;;;;;;;5056115;28;20029;-74
2021/12/16 12:58:01;;;;;;;9.63;5.10;;;;;;;;;;5074336;28;20107;-72
2021/12/16 13:00:29;;;;;;;9.85;5.13;;;;;;;;;;5055880;28;20032;-73
2021/12/16 13:03:04;;;;;;;10.27;5.07;;;;;;;;;;5055838;28;20024;-73
2021/12/16 13:05:30;;;;;;;9.18;5.43;;;;;;;;;;5055755;28;20051;-75
2021/12/16 13:08:00;;;;;;;7.95;4.80;;;;;;;;;;5055695;28;20469;-72
2021/12/16 13:10:35;;;;;;;9.60;5.43;;;;;;;;;;5055448;28;20477;-72
2021/12/16 13:15:55;;;;;;;8.60;4.75;;;;;;;;;;5074367;28;20461;-72
2021/12/16 13:23:59;;;;;;;12.00;5.75;;;;;;;;;;5073422;28;20117;-72
2021/12/16 13:26:39;;;;;;;12.77;6.07;;;;;;;;;;5073634;28;20477;-74
2021/12/16 13:29:13;;;;;;;11.00;6.00;;;;;;;;;;5055490;28;20033;-74
2021/12/16 13:31:50;;;;;;;10.93;5.65;;;;;;;;;;5073738;28;20067;-73
2021/12/16 13:34:37;;;;;;;9.95;5.40;;;;;;;;;;5073620;28;20020;-73
2021/12/16 13:37:22;;;;;;;15.00;6.43;;;;;;;;;;5055419;28;20123;-75
2021/12/16 13:39:51;;;;;;;12.57;6.82;;;;;;;;;;5051855;28;20493;-74
2021/12/16 13:42:18;;;;;;;12.20;6.35;;;;;;;;;;5052020;28;20025;-73
2021/12/16 13:44:56;;;;;;;14.13;6.30;;;;;;;;;;5051869;28;20029;-74
2021/12/16 14:01:53;;;;;;;12.38;7.43;;;;;;;;;;5052746;28;20166;-72
2021/12/16 14:07:28;;;;;;;14.00;7.68;;;;;;;;;;5053098;28;20056;-72
2021/12/16 14:10:04;;;;;;;14.63;7.50;;;;;;;;;;5051613;28;20025;-72
2021/12/16 14:15:27;;;;;;;14.45;8.05;;;;;;;;;;5052880;28;20035;-72
2021/12/16 14:18:02;;;;;;;14.73;7.57;;;;;;;;;;5052828;28;20017;-72
2021/12/16 14:23:37;;;;;;;14.25;6.60;;;;;;;;;;5053036;28;20032;-73
2021/12/16 14:42:41;;;;;;;9.70;5.10;;;;;;;;;;5072662;28;20039;-73
2021/12/16 14:50:46;;;;;;;14.75;6.38;;;;;;;;;;5072192;28;20560;-74
2021/12/16 14:53:31;;;;;;;10.20;5.07;;;;;;;;;;5054491;28;20028;-73
2021/12/16 14:55:59;;;;;;;8.25;5.07;;;;;;;;;;5072607;28;20473;-73
2021/12/16 14:58:26;;;;;;;10.60;4.90;;;;;;;;;;5072516;28;20028;-72
2021/12/16 15:00:57;;;;;;;9.43;4.88;;;;;;;;;;5072499;28;20032;-72
2021/12/16 15:03:27;;;;;;;8.90;4.93;;;;;;;;;;5054527;28;20504;-72
2021/12/16 15:05:56;;;;;;;9.50;5.60;;;;;;;;;;5076103;28;20032;-72
2021/12/16 15:08:32;;;;;;;9.20;4.93;;;;;;;;;;5076007;28;20028;-72
2021/12/16 15:10:58;;;;;;;12.68;6.38;;;;;;;;;;5075774;28;20028;-72
2021/12/16 15:13:44;;;;;;;15.57;7.47;;;;;;;;;;5057057;28;20484;-72
2021/12/16 15:43:36;;;;;;;11.02;7.18;;;;;;;;;;5075571;28;20058;-72
2021/12/16 15:46:05;;;;;;;12.80;7.65;;;;;;;;;;5057453;28;20037;-73
2021/12/16 15:48:31;;;;;;;15.73;7.30;;;;;;;;;;5057444;28;20020;-72
2021/12/16 15:51:04;;;;;;;15.30;7.50;;;;;;;;;;5075371;28;20036;-72
2021/12/16 15:53:40;;;;;;;20.60;8.67;;;;;;;;;;5075326;28;20473;-72
2021/12/16 15:56:15;;;;;;;24.17;9.80;;;;;;;;;;5075805;28;20114;-72
2021/12/16 15:58:47;;;;;;;16.38;8.43;;;;;;;;;;5057209;28;20545;-73
2021/12/16 16:01:25;;;;;;;20.27;9.27;;;;;;;;;;5057114;28;20492;-73
2021/12/16 16:03:51;;;;;;;13.93;8.57;;;;;;;;;;5057103;28;20435;-75
2021/12/16 16:06:18;;;;;;;12.95;6.50;;;;;;;;;;5074982;28;20036;-73
2021/12/16 16:08:55;;;;;;;18.02;8.35;;;;;;;;;;5057064;28;20097;-73
2021/12/16 16:11:24;;;;;;;13.55;7.13;;;;;;;;;;5075547;28;20055;-75
2021/12/16 16:13:53;;;;;;;22.52;9.75;;;;;;;;;;5056966;28;20485;-73
2021/12/16 16:16:20;;;;;;;15.25;7.97;;;;;;;;;;5056789;28;20472;-74
2021/12/16 16:19:00;;;;;;;13.23;6.72;;;;;;;;;;5056838;28;20028;-73
2021/12/16 16:21:31;;;;;;;10.80;6.28;;;;;;;;;;5074730;28;20111;-73
2021/12/16 16:24:10;;;;;;;9.98;5.63;;;;;;;;;;5056833;28;20020;-74
2021/12/16 16:26:39;;;;;;;7.70;4.43;;;;;;;;;;5056608;28;20043;-75
2021/12/16 16:29:06;;;;;;;9.88;4.97;;;;;;;;;;5056521;28;20469;-73
2021/12/16 16:31:34;;;;;;;11.73;5.57;;;;;;;;;;5074256;28;20033;-75
2021/12/16 16:34:01;;;;;;;9.02;4.57;;;;;;;;;;5074962;28;20107;-72
2021/12/16 16:36:28;;;;;;;9.18;4.78;;;;;;;;;;5056470;28;20389;-74
2021/12/16 16:39:04;;;;;;;7.90;3.83;;;;;;;;;;5074019;28;20384;-73
2021/12/16 16:41:31;;;;;;;10.50;4.75;;;;;;;;;;5057241;28;20127;-74
2021/12/16 16:43:57;;;;;;;9.60;4.85;;;;;;;;;;5056372;28;20056;-73
2021/12/16 16:46:33;;;;;;;8.10;4.60;;;;;;;;;;5056183;28;20107;-74
2021/12/16 16:51:32;;;;;;;8.90;4.20;;;;;;;;;;5074422;28;20039;-73
2021/12/16 16:54:07;;;;;;;13.60;5.90;;;;;;;;;;5056292;28;20035;-73
2021/12/16 16:56:41;;;;;;;11.60;5.63;;;;;;;;;;5056050;28;20029;-72
2021/12/16 16:59:09;;;;;;;9.50;4.85;;;;;;;;;;5074157;28;20416;-73
2021/12/16 17:01:36;;;;;;;10.40;4.78;;;;;;;;;;5056436;28;20041;-72
2021/12/16 17:04:04;;;;;;;7.68;4.05;;;;;;;;;;5073679;28;20107;-72
2021/12/16 17:06:30;;;;;;;9.38;4.47;;;;;;;;;;5055373;28;20028;-73
2021/12/16 17:08:57;;;;;;;8.45;4.03;;;;;;;;;;5055936;28;20025;-72
2021/12/16 17:11:25;;;;;;;6.25;3.88;;;;;;;;;;5055833;28;20115;-73
2021/12/16 17:14:19;;;;;;;6.25;3.95;;;;;;;;;;5055875;28;20452;-73
2021/12/16 17:19:33;;;;;;;5.93;3.45;;;;;;;;;;5074018;28;20043;-73
2021/12/16 17:22:00;;;;;;;9.27;4.45;;;;;;;;;;5055563;28;20044;-73
2021/12/16 17:24:28;;;;;;;8.38;4.03;;;;;;;;;;5055618;28;20033;-72
2021/12/16 17:27:03;;;;;;;7.22;4.13;;;;;;;;;;5055895;28;20346;-73
2021/12/16 17:29:34;;;;;;;7.72;4.18;;;;;;;;;;5055563;28;20027;-73
2021/12/16 17:32:04;;;;;;;6.78;4.18;;;;;;;;;;5055504;28;20021;-72
2021/12/16 17:34:33;;;;;;;8.07;4.28;;;;;;;;;;5055556;28;20020;-73
2021/12/16 17:36:59;;;;;;;8.55;3.88;;;;;;;;;;5055369;28;20024;-73
2021/12/16 17:39:28;;;;;;;13.32;5.72;;;;;;;;;;5051834;28;20481;-74
2021/12/16 17:41:54;;;;;;;12.98;6.50;;;;;;;;;;5053218;28;20041;-73
2021/12/16 17:44:20;;;;;;;14.63;6.88;;;;;;;;;;5052049;28;20102;-74
2021/12/16 17:46:51;;;;;;;17.20;7.13;;;;;;;;;;5052024;28;20021;-73
2021/12/16 17:49:17;;;;;;;10.32;5.18;;;;;;;;;;5053828;28;20078;-73
2021/12/16 17:51:43;;;;;;;8.73;4.93;;;;;;;;;;5052000;28;20354;-73
2021/12/16 17:54:11;;;;;;;7.38;4.10;;;;;;;;;;5051994;28;20029;-73
2021/12/16 17:56:37;;;;;;;9.65;4.97;;;;;;;;;;5051986;28;20033;-72
2021/12/16 17:59:06;;;;;;;7.10;4.30;;;;;;;;;;5051961;28;20025;-72
2021/12/16 18:01:34;;;;;;;6.75;4.00;;;;;;;;;;5053088;28;20095;-74
2021/12/16 18:04:05;;;;;;;5.80;3.08;;;;;;;;;;5051926;28;20090;-72
2021/12/16 18:06:43;;;;;;;7.05;4.43;;;;;;;;;;5051925;28;20039;-72
2021/12/16 18:09:18;;;;;;;9.30;4.47;;;;;;;;;;5051885;28;20458;-72
2021/12/16 18:11:49;;;;;;;6.53;4.18;;;;;;;;;;5053683;28;20457;-72
2021/12/16 18:14:18;;;;;;;6.82;4.38;;;;;;;;;;5051833;28;20025;-72
2021/12/16 18:16:56;;;;;;;8.68;4.22;;;;;;;;;;5051752;28;20025;-72
2021/12/16 18:19:25;;;;;;;7.90;4.88;;;;;;;;;;5051925;28;20029;-73
2021/12/16 18:21:52;;;;;;;9.50;5.80;;;;;;;;;;5051710;28;20059;-73
2021/12/16 18:24:19;;;;;;;9.35;5.22;;;;;;;;;;5051801;28;20021;-73
2021/12/16 18:26:47;;;;;;;7.70;4.38;;;;;;;;;;5053483;28;20035;-73
2021/12/16 18:29:14;;;;;;;8.18;5.07;;;;;;;;;;5051670;28;20470;-72
2021/12/16 18:31:42;;;;;;;8.88;4.90;;;;;;;;;;5052924;28;20385;-72
2021/12/16 18:34:13;;;;;;;7.20;4.28;;;;;;;;;;5051659;28;20035;-71